sensor_id;sensor_type;location;lat;lon;timestamp;pressure;altitude;pressure_sealevel;temperature;humidity
28935;BME280;16044;52.726;-2.108;2023-03-11T00:01:03;100007.69;;;-0.75;98.88
28935;BME280;16044;52.726;-2.108;2023-03-11T00:03:30;100000.66;;;-0.76;98.87
28935;BME280;16044;52.726;-2.108;2023-03-11T00:06:00;100002.59;;;-0.78;99.17
28935;BME280;16044;52.726;-2.108;2023-03-11T00:08:27;99998.25;;;-0.79;99.03
28935;BME280;16044;52.726;-2.108;2023-03-11T00:10:56;99989.53;;;-0.81;99.09
28935;BME280;16044;52.726;-2.108;2023-03-11T00:13:29;99994.13;;;-0.83;98.85
28935;BME280;16044;52.726;-2.108;2023-03-11T00:15:56;99989.03;;;-0.86;99.43
28935;BME280;16044;52.726;-2.108;2023-03-11T00:18:26;99990.00;;;-0.87;99.49
28935;BME280;16044;52.726;-2.108;2023-03-11T00:20:56;99987.47;;;-0.89;99.16
28935;BME280;16044;52.726;-2.108;2023-03-11T00:23:25;99988.63;;;-0.93;99.15
28935;BME280;16044;52.726;-2.108;2023-03-11T00:25:53;99987.19;;;-0.97;99.29
28935;BME280;16044;52.726;-2.108;2023-03-11T00:28:20;99988.25;;;-1.00;99.10
28935;BME280;16044;52.726;-2.108;2023-03-11T00:30:50;99986.81;;;-1.04;99.80
28935;BME280;16044;52.726;-2.108;2023-03-11T00:33:17;99990.53;;;-1.06;99.50
28935;BME280;16044;52.726;-2.108;2023-03-11T00:35:44;99993.66;;;-1.12;100.00
28935;BME280;16044;52.726;-2.108;2023-03-11T00:38:13;99986.50;;;-1.12;100.00
28935;BME280;16044;52.726;-2.108;2023-03-11T00:40:45;99987.38;;;-1.11;99.56
28935;BME280;16044;52.726;-2.108;2023-03-11T00:43:13;99997.28;;;-1.13;99.48
28935;BME280;16044;52.726;-2.108;2023-03-11T00:45:41;99996.41;;;-1.14;99.42
28935;BME280;16044;52.726;-2.108;2023-03-11T00:48:08;99986.75;;;-1.15;99.33
28935;BME280;16044;52.726;-2.108;2023-03-11T00:50:36;99985.28;;;-1.19;99.76
28935;BME280;16044;52.726;-2.108;2023-03-11T00:53:04;99984.41;;;-1.20;99.71
28935;BME280;16044;52.726;-2.108;2023-03-11T00:55:33;99992.41;;;-1.20;99.72
28935;BME280;16044;52.726;-2.108;2023-03-11T00:58:03;99988.16;;;-1.22;99.43
28935;BME280;16044;52.726;-2.108;2023-03-11T01:00:30;99987.44;;;-1.24;99.39
28935;BME280;16044;52.726;-2.108;2023-03-11T01:02:59;99985.81;;;-1.27;99.37
28935;BME280;16044;52.726;-2.108;2023-03-11T01:05:29;99983.53;;;-1.31;99.81
28935;BME280;16044;52.726;-2.108;2023-03-11T01:07:57;99980.13;;;-1.33;99.91
28935;BME280;16044;52.726;-2.108;2023-03-11T01:10:26;99980.34;;;-1.37;100.00
28935;BME280;16044;52.726;-2.108;2023-03-11T01:12:53;99973.56;;;-1.41;100.00
28935;BME280;16044;52.726;-2.108;2023-03-11T01:15:33;99984.41;;;-1.44;99.99
28935;BME280;16044;52.726;-2.108;2023-03-11T01:18:02;99975.94;;;-1.49;99.90
28935;BME280;16044;52.726;-2.108;2023-03-11T01:20:30;99976.16;;;-1.52;100.00
28935;BME280;16044;52.726;-2.108;2023-03-11T01:22:57;99973.84;;;-1.57;100.00
28935;BME280;16044;52.726;-2.108;2023-03-11T01:25:24;99967.91;;;-1.60;100.00
28935;BME280;16044;52.726;-2.108;2023-03-11T01:27:51;99975.16;;;-1.62;99.64
28935;BME280;16044;52.726;-2.108;2023-03-11T01:30:20;99972.06;;;-1.69;100.00
28935;BME280;16044;52.726;-2.108;2023-03-11T01:32:50;99968.78;;;-1.72;100.00
28935;BME280;16044;52.726;-2.108;2023-03-11T01:35:20;99970.06;;;-1.78;100.00
28935;BME280;16044;52.726;-2.108;2023-03-11T01:37:49;99969.56;;;-1.83;100.00
28935;BME280;16044;52.726;-2.108;2023-03-11T01:40:19;99969.69;;;-1.85;100.00
28935;BME280;16044;52.726;-2.108;2023-03-11T01:42:50;99970.72;;;-1.87;99.94
28935;BME280;16044;52.726;-2.108;2023-03-11T01:45:38;99970.34;;;-1.94;100.00
28935;BME280;16044;52.726;-2.108;2023-03-11T01:48:14;99958.97;;;-1.96;100.00
28935;BME280;16044;52.726;-2.108;2023-03-11T01:50:48;99967.38;;;-2.02;100.00
28935;BME280;16044;52.726;-2.108;2023-03-11T01:53:16;99965.88;;;-2.06;100.00
28935;BME280;16044;52.726;-2.108;2023-03-11T01:55:44;99973.97;;;-2.08;100.00
28935;BME280;16044;52.726;-2.108;2023-03-11T01:58:20;99969.19;;;-2.16;100.00
28935;BME280;16044;52.726;-2.108;2023-03-11T02:00:51;99968.69;;;-2.21;100.00
28935;BME280;16044;52.726;-2.108;2023-03-11T02:03:35;99959.09;;;-2.23;100.00
28935;BME280;16044;52.726;-2.108;2023-03-11T02:06:07;99958.25;;;-2.24;100.00
28935;BME280;16044;52.726;-2.108;2023-03-11T02:08:37;99954.88;;;-2.26;100.00
28935;BME280;16044;52.726;-2.108;2023-03-11T02:11:07;99955.22;;;-2.30;100.00
28935;BME280;16044;52.726;-2.108;2023-03-11T02:13:36;99948.28;;;-2.33;100.00
28935;BME280;16044;52.726;-2.108;2023-03-11T02:16:05;99943.31;;;-2.38;100.00
28935;BME280;16044;52.726;-2.108;2023-03-11T02:18:33;99941.84;;;-2.42;100.00
28935;BME280;16044;52.726;-2.108;2023-03-11T02:26:55;99938.09;;;-2.52;100.00
28935;BME280;16044;52.726;-2.108;2023-03-11T02:29:26;99931.22;;;-2.55;100.00
28935;BME280;16044;52.726;-2.108;2023-03-11T02:31:58;99936.72;;;-2.58;100.00
28935;BME280;16044;52.726;-2.108;2023-03-11T02:34:30;99929.75;;;-2.59;100.00
28935;BME280;16044;52.726;-2.108;2023-03-11T02:36:59;99934.91;;;-2.57;100.00
28935;BME280;16044;52.726;-2.108;2023-03-11T02:41:57;99944.38;;;-2.53;100.00
28935;BME280;16044;52.726;-2.108;2023-03-11T02:44:25;99941.50;;;-2.50;100.00
28935;BME280;16044;52.726;-2.108;2023-03-11T02:46:52;99940.47;;;-2.47;100.00
28935;BME280;16044;52.726;-2.108;2023-03-11T02:49:21;99952.75;;;-2.46;100.00
28935;BME280;16044;52.726;-2.108;2023-03-11T02:51:48;99947.00;;;-2.40;100.00
28935;BME280;16044;52.726;-2.108;2023-03-11T02:54:15;99937.78;;;-2.35;100.00
28935;BME280;16044;52.726;-2.108;2023-03-11T02:56:42;99937.47;;;-2.30;100.00
28935;BME280;16044;52.726;-2.108;2023-03-11T02:59:08;99930.97;;;-2.26;100.00
28935;BME280;16044;52.726;-2.108;2023-03-11T03:01:35;99926.19;;;-2.21;100.00
28935;BME280;16044;52.726;-2.108;2023-03-11T03:04:03;99931.41;;;-2.19;100.00
28935;BME280;16044;52.726;-2.108;2023-03-11T03:06:30;99922.25;;;-2.15;100.00
28935;BME280;16044;52.726;-2.108;2023-03-11T03:08:57;99919.72;;;-2.17;100.00
28935;BME280;16044;52.726;-2.108;2023-03-11T03:11:23;99923.84;;;-2.12;100.00
28935;BME280;16044;52.726;-2.108;2023-03-11T03:13:50;99926.91;;;-2.06;100.00
28935;BME280;16044;52.726;-2.108;2023-03-11T03:16:17;99935.53;;;-2.02;100.00
28935;BME280;16044;52.726;-2.108;2023-03-11T03:18:44;99922.84;;;-1.99;100.00
28935;BME280;16044;52.726;-2.108;2023-03-11T03:21:11;99923.72;;;-1.98;100.00
28935;BME280;16044;52.726;-2.108;2023-03-11T03:23:38;99924.44;;;-1.96;100.00
28935;BME280;16044;52.726;-2.108;2023-03-11T03:26:05;99931.44;;;-1.95;100.00
28935;BME280;16044;52.726;-2.108;2023-03-11T03:28:32;99929.53;;;-1.93;100.00
28935;BME280;16044;52.726;-2.108;2023-03-11T03:31:04;99930.03;;;-1.88;100.00
28935;BME280;16044;52.726;-2.108;2023-03-11T03:33:33;99938.84;;;-1.87;100.00
28935;BME280;16044;52.726;-2.108;2023-03-11T03:36:05;99932.59;;;-1.86;100.00
28935;BME280;16044;52.726;-2.108;2023-03-11T03:38:36;99925.47;;;-1.86;100.00
28935;BME280;16044;52.726;-2.108;2023-03-11T03:41:03;99935.16;;;-1.85;100.00
28935;BME280;16044;52.726;-2.108;2023-03-11T03:43:30;99932.50;;;-1.85;100.00
28935;BME280;16044;52.726;-2.108;2023-03-11T03:46:00;99940.47;;;-1.85;100.00
28935;BME280;16044;52.726;-2.108;2023-03-11T03:48:28;99932.25;;;-1.82;100.00
28935;BME280;16044;52.726;-2.108;2023-03-11T03:50:56;99929.38;;;-1.79;100.00
28935;BME280;16044;52.726;-2.108;2023-03-11T03:53:28;99930.56;;;-1.83;100.00
28935;BME280;16044;52.726;-2.108;2023-03-11T03:55:55;99926.00;;;-1.81;100.00
28935;BME280;16044;52.726;-2.108;2023-03-11T03:58:21;99933.13;;;-1.81;100.00
28935;BME280;16044;52.726;-2.108;2023-03-11T04:00:48;99930.31;;;-1.80;100.00
28935;BME280;16044;52.726;-2.108;2023-03-11T04:03:15;99930.22;;;-1.78;100.00
28935;BME280;16044;52.726;-2.108;2023-03-11T04:05:42;99924.06;;;-1.79;100.00
28935;BME280;16044;52.726;-2.108;2023-03-11T04:08:09;99922.34;;;-1.80;100.00
28935;BME280;16044;52.726;-2.108;2023-03-11T04:10:36;99932.97;;;-1.80;100.00
28935;BME280;16044;52.726;-2.108;2023-03-11T04:13:03;99932.16;;;-1.80;100.00
28935;BME280;16044;52.726;-2.108;2023-03-11T04:15:30;99934.91;;;-1.82;100.00
28935;BME280;16044;52.726;-2.108;2023-03-11T04:17:56;99933.13;;;-1.81;100.00
28935;BME280;16044;52.726;-2.108;2023-03-11T04:20:24;99940.00;;;-1.79;100.00
28935;BME280;16044;52.726;-2.108;2023-03-11T04:22:51;99949.69;;;-1.78;100.00
28935;BME280;16044;52.726;-2.108;2023-03-11T04:25:17;99955.00;;;-1.78;100.00
28935;BME280;16044;52.726;-2.108;2023-03-11T04:27:44;99962.09;;;-1.78;100.00
28935;BME280;16044;52.726;-2.108;2023-03-11T04:30:15;99965.50;;;-1.76;100.00
28935;BME280;16044;52.726;-2.108;2023-03-11T04:32:42;99958.16;;;-1.72;100.00
28935;BME280;16044;52.726;-2.108;2023-03-11T04:35:09;99976.75;;;-1.72;100.00
28935;BME280;16044;52.726;-2.108;2023-03-11T04:37:36;99983.25;;;-1.77;100.00
28935;BME280;16044;52.726;-2.108;2023-03-11T04:40:03;99983.03;;;-1.73;100.00
28935;BME280;16044;52.726;-2.108;2023-03-11T04:42:32;99967.09;;;-1.73;100.00
28935;BME280;16044;52.726;-2.108;2023-03-11T04:44:59;99954.75;;;-1.74;100.00
28935;BME280;16044;52.726;-2.108;2023-03-11T04:47:27;99954.88;;;-1.76;100.00
28935;BME280;16044;52.726;-2.108;2023-03-11T04:49:54;99961.06;;;-1.75;100.00
28935;BME280;16044;52.726;-2.108;2023-03-11T04:52:21;99953.09;;;-1.75;100.00
28935;BME280;16044;52.726;-2.108;2023-03-11T04:54:48;99951.78;;;-1.70;100.00
28935;BME280;16044;52.726;-2.108;2023-03-11T04:57:15;99975.06;;;-1.73;100.00
28935;BME280;16044;52.726;-2.108;2023-03-11T04:59:42;99972.41;;;-1.73;100.00
28935;BME280;16044;52.726;-2.108;2023-03-11T05:02:09;99974.09;;;-1.72;100.00
28935;BME280;16044;52.726;-2.108;2023-03-11T05:04:38;99950.19;;;-1.72;100.00
28935;BME280;16044;52.726;-2.108;2023-03-11T05:07:05;99963.34;;;-1.71;100.00
28935;BME280;16044;52.726;-2.108;2023-03-11T05:09:33;99960.81;;;-1.72;100.00
28935;BME280;16044;52.726;-2.108;2023-03-11T05:12:00;99968.69;;;-1.71;100.00
28935;BME280;16044;52.726;-2.108;2023-03-11T05:14:27;99982.81;;;-1.70;100.00
28935;BME280;16044;52.726;-2.108;2023-03-11T05:16:54;99979.72;;;-1.64;100.00
28935;BME280;16044;52.726;-2.108;2023-03-11T05:19:21;99964.50;;;-1.62;100.00
28935;BME280;16044;52.726;-2.108;2023-03-11T05:22:01;99957.50;;;-1.63;100.00
28935;BME280;16044;52.726;-2.108;2023-03-11T05:24:29;99969.94;;;-1.64;100.00
28935;BME280;16044;52.726;-2.108;2023-03-11T05:26:56;99976.09;;;-1.63;100.00
28935;BME280;16044;52.726;-2.108;2023-03-11T05:29:24;99991.09;;;-1.62;100.00
28935;BME280;16044;52.726;-2.108;2023-03-11T05:31:51;99987.34;;;-1.60;100.00
28935;BME280;16044;52.726;-2.108;2023-03-11T05:34:19;99990.09;;;-1.61;100.00
28935;BME280;16044;52.726;-2.108;2023-03-11T05:36:46;99987.34;;;-1.60;100.00
28935;BME280;16044;52.726;-2.108;2023-03-11T05:39:13;100000.63;;;-1.60;100.00
28935;BME280;16044;52.726;-2.108;2023-03-11T05:41:40;99996.16;;;-1.59;100.00
28935;BME280;16044;52.726;-2.108;2023-03-11T05:44:07;100004.88;;;-1.57;100.00
28935;BME280;16044;52.726;-2.108;2023-03-11T05:46:34;99999.34;;;-1.54;100.00
28935;BME280;16044;52.726;-2.108;2023-03-11T05:49:01;100000.44;;;-1.57;100.00
28935;BME280;16044;52.726;-2.108;2023-03-11T05:51:28;100004.88;;;-1.57;100.00
28935;BME280;16044;52.726;-2.108;2023-03-11T05:53:55;100002.97;;;-1.55;100.00
28935;BME280;16044;52.726;-2.108;2023-03-11T05:56:22;100015.50;;;-1.57;100.00
28935;BME280;16044;52.726;-2.108;2023-03-11T05:58:49;100015.28;;;-1.54;100.00
28935;BME280;16044;52.726;-2.108;2023-03-11T06:01:18;100020.59;;;-1.54;100.00
28935;BME280;16044;52.726;-2.108;2023-03-11T06:03:46;100016.13;;;-1.53;100.00
28935;BME280;16044;52.726;-2.108;2023-03-11T06:06:13;100022.06;;;-1.50;100.00
28935;BME280;16044;52.726;-2.108;2023-03-11T06:08:40;100016.75;;;-1.50;100.00
28935;BME280;16044;52.726;-2.108;2023-03-11T06:11:12;100013.25;;;-1.50;100.00
28935;BME280;16044;52.726;-2.108;2023-03-11T06:13:39;100021.97;;;-1.48;100.00
28935;BME280;16044;52.726;-2.108;2023-03-11T06:16:06;100010.72;;;-1.52;100.00
28935;BME280;16044;52.726;-2.108;2023-03-11T06:18:34;100014.44;;;-1.54;100.00
28935;BME280;16044;52.726;-2.108;2023-03-11T06:21:01;100021.13;;;-1.49;100.00
28935;BME280;16044;52.726;-2.108;2023-03-11T06:23:32;100011.44;;;-1.50;100.00
28935;BME280;16044;52.726;-2.108;2023-03-11T06:26:02;100008.91;;;-1.51;100.00
28935;BME280;16044;52.726;-2.108;2023-03-11T06:28:30;100014.94;;;-1.49;100.00
28935;BME280;16044;52.726;-2.108;2023-03-11T06:31:28;100015.09;;;-1.51;100.00
28935;BME280;16044;52.726;-2.108;2023-03-11T06:33:57;100019.41;;;-1.50;100.00
28935;BME280;16044;52.726;-2.108;2023-03-11T06:36:24;100024.75;;;-1.50;100.00
28935;BME280;16044;52.726;-2.108;2023-03-11T06:38:53;100034.41;;;-1.49;100.00
28935;BME280;16044;52.726;-2.108;2023-03-11T06:41:20;100026.34;;;-1.47;100.00
28935;BME280;16044;52.726;-2.108;2023-03-11T06:43:47;100021.88;;;-1.47;100.00
28935;BME280;16044;52.726;-2.108;2023-03-11T06:46:19;100013.78;;;-1.45;100.00
28935;BME280;16044;52.726;-2.108;2023-03-11T06:48:47;100000.34;;;-1.44;100.00
28935;BME280;16044;52.726;-2.108;2023-03-11T06:51:18;100004.63;;;-1.41;100.00
28935;BME280;16044;52.726;-2.108;2023-03-11T06:53:50;100014.28;;;-1.40;100.00
28935;BME280;16044;52.726;-2.108;2023-03-11T06:56:20;100010.78;;;-1.41;100.00
28935;BME280;16044;52.726;-2.108;2023-03-11T06:58:48;100005.25;;;-1.38;100.00
28935;BME280;16044;52.726;-2.108;2023-03-11T07:01:20;100008.66;;;-1.35;100.00
28935;BME280;16044;52.726;-2.108;2023-03-11T07:03:48;100004.06;;;-1.33;100.00
28935;BME280;16044;52.726;-2.108;2023-03-11T07:06:21;99987.13;;;-1.32;100.00
28935;BME280;16044;52.726;-2.108;2023-03-11T07:08:51;99992.22;;;-1.29;100.00
28935;BME280;16044;52.726;-2.108;2023-03-11T07:11:23;99993.94;;;-1.28;100.00
28935;BME280;16044;52.726;-2.108;2023-03-11T07:13:53;100002.53;;;-1.25;100.00
28935;BME280;16044;52.726;-2.108;2023-03-11T07:16:23;99995.31;;;-1.23;100.00
28935;BME280;16044;52.726;-2.108;2023-03-11T07:18:53;99996.03;;;-1.21;100.00
28935;BME280;16044;52.726;-2.108;2023-03-11T07:21:22;100004.38;;;-1.14;100.00
28935;BME280;16044;52.726;-2.108;2023-03-11T07:23:54;100001.72;;;-1.14;100.00
28935;BME280;16044;52.726;-2.108;2023-03-11T07:26:22;100003.19;;;-1.10;100.00
28935;BME280;16044;52.726;-2.108;2023-03-11T07:28:50;100012.66;;;-1.06;100.00
28935;BME280;16044;52.726;-2.108;2023-03-11T07:31:20;100011.69;;;-1.05;100.00
28935;BME280;16044;52.726;-2.108;2023-03-11T07:33:49;100018.47;;;-1.01;100.00
28935;BME280;16044;52.726;-2.108;2023-03-11T07:36:18;100004.13;;;-0.98;100.00
28935;BME280;16044;52.726;-2.108;2023-03-11T07:38:47;99988.34;;;-0.77;100.00
28935;BME280;16044;52.726;-2.108;2023-03-11T07:41:15;99980.88;;;-0.61;100.00
28935;BME280;16044;52.726;-2.108;2023-03-11T07:43:42;99988.19;;;-0.29;100.00
28935;BME280;16044;52.726;-2.108;2023-03-11T07:46:15;99986.03;;;-0.01;100.00
28935;BME280;16044;52.726;-2.108;2023-03-11T07:48:44;99990.34;;;0.45;100.00
28935;BME280;16044;52.726;-2.108;2023-03-11T07:51:14;99997.53;;;0.77;99.78
28935;BME280;16044;52.726;-2.108;2023-03-11T07:53:43;99999.22;;;0.89;100.00
28935;BME280;16044;52.726;-2.108;2023-03-11T07:56:11;99996.75;;;0.97;99.20
28935;BME280;16044;52.726;-2.108;2023-03-11T07:58:40;99999.88;;;1.03;98.36
28935;BME280;16044;52.726;-2.108;2023-03-11T08:01:19;99994.56;;;1.03;98.29
28935;BME280;16044;52.726;-2.108;2023-03-11T08:03:50;99991.88;;;1.03;98.17
28935;BME280;16044;52.726;-2.108;2023-03-11T08:06:23;99998.94;;;0.92;95.78
28935;BME280;16044;52.726;-2.108;2023-03-11T08:08:52;100000.88;;;0.90;95.60
28935;BME280;16044;52.726;-2.108;2023-03-11T08:11:19;100000.88;;;0.90;97.49
28935;BME280;16044;52.726;-2.108;2023-03-11T08:13:48;100007.22;;;0.89;97.04
28935;BME280;16044;52.726;-2.108;2023-03-11T08:16:17;99995.50;;;1.02;97.53
28935;BME280;16044;52.726;-2.108;2023-03-11T08:18:47;99990.97;;;1.13;97.14
28935;BME280;16044;52.726;-2.108;2023-03-11T08:21:17;100002.72;;;1.22;96.38
28935;BME280;16044;52.726;-2.108;2023-03-11T08:23:46;99993.94;;;1.31;93.91
28935;BME280;16044;52.726;-2.108;2023-03-11T08:26:15;99994.00;;;1.41;94.33
28935;BME280;16044;52.726;-2.108;2023-03-11T08:28:44;99993.34;;;1.49;94.11
28935;BME280;16044;52.726;-2.108;2023-03-11T08:31:16;100002.41;;;1.58;93.71
28935;BME280;16044;52.726;-2.108;2023-03-11T08:33:46;99990.34;;;1.63;91.44
28935;BME280;16044;52.726;-2.108;2023-03-11T08:36:17;99999.06;;;1.65;91.66
28935;BME280;16044;52.726;-2.108;2023-03-11T08:38:46;100002.34;;;1.69;91.26
28935;BME280;16044;52.726;-2.108;2023-03-11T08:41:13;100003.88;;;1.71;90.95
28935;BME280;16044;52.726;-2.108;2023-03-11T08:43:41;100000.69;;;1.78;90.84
28935;BME280;16044;52.726;-2.108;2023-03-11T08:46:16;100006.19;;;1.76;90.03
28935;BME280;16044;52.726;-2.108;2023-03-11T08:48:49;100012.34;;;1.77;89.52
28935;BME280;16044;52.726;-2.108;2023-03-11T08:51:15;100008.69;;;1.78;89.81
28935;BME280;16044;52.726;-2.108;2023-03-11T08:53:42;100009.56;;;1.78;89.12
28935;BME280;16044;52.726;-2.108;2023-03-11T08:56:09;100012.09;;;1.80;89.08
28935;BME280;16044;52.726;-2.108;2023-03-11T08:58:36;100010.16;;;1.82;89.11
28935;BME280;16044;52.726;-2.108;2023-03-11T09:01:05;100001.84;;;1.85;89.63
28935;BME280;16044;52.726;-2.108;2023-03-11T09:03:33;100005.69;;;1.92;89.47
28935;BME280;16044;52.726;-2.108;2023-03-11T09:06:03;99994.47;;;1.98;88.01
28935;BME280;16044;52.726;-2.108;2023-03-11T09:08:33;99992.25;;;2.03;87.58
28935;BME280;16044;52.726;-2.108;2023-03-11T09:11:00;99987.75;;;2.13;87.16
28935;BME280;16044;52.726;-2.108;2023-03-11T09:13:27;99992.75;;;2.28;87.61
28935;BME280;16044;52.726;-2.108;2023-03-11T09:15:54;99990.94;;;2.38;86.73
28935;BME280;16044;52.726;-2.108;2023-03-11T09:18:21;99984.38;;;2.52;85.57
28935;BME280;16044;52.726;-2.108;2023-03-11T09:20:49;99990.47;;;2.64;85.30
28935;BME280;16044;52.726;-2.108;2023-03-11T09:23:17;99986.69;;;2.76;84.09
28935;BME280;16044;52.726;-2.108;2023-03-11T09:25:44;99986.97;;;2.92;84.53
28935;BME280;16044;52.726;-2.108;2023-03-11T09:28:10;99973.31;;;3.05;83.95
28935;BME280;16044;52.726;-2.108;2023-03-11T09:30:37;99976.41;;;3.20;82.02
28935;BME280;16044;52.726;-2.108;2023-03-11T09:33:04;99972.03;;;3.29;79.26
28935;BME280;16044;52.726;-2.108;2023-03-11T09:35:32;99968.22;;;3.41;80.39
28935;BME280;16044;52.726;-2.108;2023-03-11T09:37:59;99975.41;;;3.41;77.49
28935;BME280;16044;52.726;-2.108;2023-03-11T09:40:27;99972.84;;;3.49;78.89
28935;BME280;16044;52.726;-2.108;2023-03-11T09:43:56;99970.59;;;3.54;78.26
28935;BME280;16044;52.726;-2.108;2023-03-11T09:52:11;99964.03;;;3.86;75.83
28935;BME280;16044;52.726;-2.108;2023-03-11T09:54:52;99968.66;;;3.94;76.28
28935;BME280;16044;52.726;-2.108;2023-03-11T09:57:30;99960.56;;;4.03;75.23
28935;BME280;16044;52.726;-2.108;2023-03-11T10:00:01;99961.81;;;4.09;75.25
28935;BME280;16044;52.726;-2.108;2023-03-11T10:02:30;99966.97;;;4.20;73.93
28935;BME280;16044;52.726;-2.108;2023-03-11T10:05:09;99961.72;;;4.28;73.38
28935;BME280;16044;52.726;-2.108;2023-03-11T10:08:33;99963.34;;;4.39;72.08
28935;BME280;16044;52.726;-2.108;2023-03-11T10:11:49;99965.00;;;4.50;70.65
28935;BME280;16044;52.726;-2.108;2023-03-11T10:25:27;99959.81;;;4.84;66.03
28935;BME280;16044;52.726;-2.108;2023-03-11T10:28:04;99973.31;;;4.93;66.74
28935;BME280;16044;52.726;-2.108;2023-03-11T10:30:49;99973.72;;;4.98;65.71
28935;BME280;16044;52.726;-2.108;2023-03-11T10:36:16;99954.97;;;5.06;64.86
28935;BME280;16044;52.726;-2.108;2023-03-11T10:38:51;99956.00;;;5.05;64.69
28935;BME280;16044;52.726;-2.108;2023-03-11T10:41:29;99958.97;;;5.02;63.46
28935;BME280;16044;52.726;-2.108;2023-03-11T10:44:05;99963.34;;;5.03;63.58
28935;BME280;16044;52.726;-2.108;2023-03-11T10:46:36;99951.31;;;5.07;63.52
28935;BME280;16044;52.726;-2.108;2023-03-11T10:49:16;99948.13;;;5.12;62.34
28935;BME280;16044;52.726;-2.108;2023-03-11T10:51:49;99950.91;;;5.20;62.67
28935;BME280;16044;52.726;-2.108;2023-03-11T10:57:03;99946.13;;;5.14;61.06
28935;BME280;16044;52.726;-2.108;2023-03-11T10:59:50;99944.13;;;5.16;61.35
28935;BME280;16044;52.726;-2.108;2023-03-11T11:04:48;99946.81;;;5.16;60.75
28935;BME280;16044;52.726;-2.108;2023-03-11T11:12:50;99933.31;;;5.25;61.73
28935;BME280;16044;52.726;-2.108;2023-03-11T11:15:28;99938.69;;;5.25;62.43
28935;BME280;16044;52.726;-2.108;2023-03-11T11:18:05;99927.63;;;5.28;62.06
28935;BME280;16044;52.726;-2.108;2023-03-11T11:20:54;99923.31;;;5.36;63.19
28935;BME280;16044;52.726;-2.108;2023-03-11T11:23:37;99917.97;;;5.44;63.09
28935;BME280;16044;52.726;-2.108;2023-03-11T11:26:26;99921.72;;;5.51;62.96
28935;BME280;16044;52.726;-2.108;2023-03-11T11:29:14;99929.84;;;5.59;63.51
28935;BME280;16044;52.726;-2.108;2023-03-11T11:31:43;99932.06;;;5.64;63.32
28935;BME280;16044;52.726;-2.108;2023-03-11T11:34:33;99921.19;;;5.74;63.49
28935;BME280;16044;52.726;-2.108;2023-03-11T11:37:02;99918.91;;;5.87;63.73
28935;BME280;16044;52.726;-2.108;2023-03-11T11:39:46;99910.19;;;5.93;63.92
28935;BME280;16044;52.726;-2.108;2023-03-11T11:42:18;99897.16;;;5.98;64.80
28935;BME280;16044;52.726;-2.108;2023-03-11T11:44:50;99894.81;;;6.03;64.71
28935;BME280;16044;52.726;-2.108;2023-03-11T11:47:26;99903.88;;;6.02;64.91
28935;BME280;16044;52.726;-2.108;2023-03-11T11:49:58;99892.31;;;6.10;66.36
28935;BME280;16044;52.726;-2.108;2023-03-11T11:52:35;99897.53;;;6.12;66.76
28935;BME280;16044;52.726;-2.108;2023-03-11T11:55:26;99905.63;;;6.20;66.43
28935;BME280;16044;52.726;-2.108;2023-03-11T11:57:55;99897.91;;;6.25;66.80
28935;BME280;16044;52.726;-2.108;2023-03-11T12:00:29;99897.59;;;6.28;66.24
28935;BME280;16044;52.726;-2.108;2023-03-11T12:03:30;99898.28;;;6.38;66.96
28935;BME280;16044;52.726;-2.108;2023-03-11T12:13:06;99902.06;;;6.62;65.74
28935;BME280;16044;52.726;-2.108;2023-03-11T12:15:28;99899.03;;;6.65;65.80
28935;BME280;16044;52.726;-2.108;2023-03-11T12:18:08;99886.94;;;6.69;65.55
28935;BME280;16044;52.726;-2.108;2023-03-11T12:20:42;99881.88;;;6.74;66.06
28935;BME280;16044;52.726;-2.108;2023-03-11T12:31:07;99869.75;;;6.78;65.03
28935;BME280;16044;52.726;-2.108;2023-03-11T12:36:43;99870.41;;;6.80;65.55
28935;BME280;16044;52.726;-2.108;2023-03-11T12:39:27;99883.06;;;6.72;64.53
28935;BME280;16044;52.726;-2.108;2023-03-11T12:42:19;99884.56;;;6.66;64.73
28935;BME280;16044;52.726;-2.108;2023-03-11T12:44:48;99874.94;;;6.55;64.97
28935;BME280;16044;52.726;-2.108;2023-03-11T12:47:23;99874.78;;;6.65;65.35
28935;BME280;16044;52.726;-2.108;2023-03-11T12:53:01;99866.34;;;6.52;66.00
28935;BME280;16044;52.726;-2.108;2023-03-11T12:55:31;99863.16;;;6.48;65.94
28935;BME280;16044;52.726;-2.108;2023-03-11T12:58:30;99863.50;;;6.45;65.49
28935;BME280;16044;52.726;-2.108;2023-03-11T13:04:29;99859.56;;;6.31;66.48
28935;BME280;16044;52.726;-2.108;2023-03-11T13:12:49;99844.78;;;6.27;66.40
28935;BME280;16044;52.726;-2.108;2023-03-11T13:40:29;99785.44;;;6.45;68.30
28935;BME280;16044;52.726;-2.108;2023-03-11T13:43:03;99797.34;;;6.42;68.53
28935;BME280;16044;52.726;-2.108;2023-03-11T13:45:36;99793.66;;;6.43;68.38
28935;BME280;16044;52.726;-2.108;2023-03-11T13:48:15;99791.13;;;6.42;69.05
28935;BME280;16044;52.726;-2.108;2023-03-11T13:50:49;99790.31;;;6.41;68.67
28935;BME280;16044;52.726;-2.108;2023-03-11T13:53:32;99792.31;;;6.48;69.12
28935;BME280;16044;52.726;-2.108;2023-03-11T13:56:03;99787.28;;;6.53;69.47
28935;BME280;16044;52.726;-2.108;2023-03-11T13:58:30;99792.31;;;6.56;70.10
28935;BME280;16044;52.726;-2.108;2023-03-11T14:00:58;99784.25;;;6.48;68.28
28935;BME280;16044;52.726;-2.108;2023-03-11T14:03:35;99776.16;;;6.56;69.00
28935;BME280;16044;52.726;-2.108;2023-03-11T14:06:08;99777.19;;;6.55;68.75
28935;BME280;16044;52.726;-2.108;2023-03-11T14:08:39;99765.75;;;6.53;69.08
28935;BME280;16044;52.726;-2.108;2023-03-11T14:13:44;99766.22;;;6.48;70.11
28935;BME280;16044;52.726;-2.108;2023-03-11T14:16:19;99763.22;;;6.51;70.17
28935;BME280;16044;52.726;-2.108;2023-03-11T14:19:05;99764.22;;;6.42;70.81
28935;BME280;16044;52.726;-2.108;2023-03-11T14:21:43;99762.03;;;6.37;71.63
28935;BME280;16044;52.726;-2.108;2023-03-11T14:24:16;99760.19;;;6.30;72.72
28935;BME280;16044;52.726;-2.108;2023-03-11T14:26:56;99755.97;;;6.27;73.82
28935;BME280;16044;52.726;-2.108;2023-03-11T14:29:36;99762.84;;;6.13;75.02
28935;BME280;16044;52.726;-2.108;2023-03-11T14:32:34;99773.78;;;6.12;75.77
28935;BME280;16044;52.726;-2.108;2023-03-11T14:35:17;99774.59;;;6.12;76.81
28935;BME280;16044;52.726;-2.108;2023-03-11T14:37:46;99778.31;;;6.11;77.33
28935;BME280;16044;52.726;-2.108;2023-03-11T14:40:29;99783.03;;;6.09;78.33
28935;BME280;16044;52.726;-2.108;2023-03-11T14:43:02;99797.97;;;6.12;78.71
28935;BME280;16044;52.726;-2.108;2023-03-11T14:45:33;99787.38;;;6.10;79.00